TimeCDT,TemperatureF,Dew PointF,Humidity,Sea Level PressureIn,VisibilityMPH,Wind Direction,Wind SpeedMPH,Gust SpeedMPH,PrecipitationIn,Events,Conditions,WindDirDegrees,DateUTC
12:53 AM,37.0,27.0,67,30.16,10.0,Calm,Calm,-,N/A,,Clear,0,2012-09-24 05:53:00
1:53 AM,34.0,27.0,75,30.15,10.0,Calm,Calm,-,N/A,,Clear,0,2012-09-24 06:53:00
2:53 AM,32.0,27.0,82,30.13,10.0,Calm,Calm,-,N/A,,Clear,0,2012-09-24 07:53:00
3:53 AM,32.0,27.0,82,30.11,10.0,Calm,Calm,-,N/A,,Clear,0,2012-09-24 08:53:00
4:53 AM,30.0,26.1,85,30.09,10.0,South,3.5,-,N/A,,Clear,180,2012-09-24 09:53:00
5:53 AM,34.0,26.1,73,30.05,10.0,SSW,6.9,-,N/A,,Clear,200,2012-09-24 10:53:00
6:53 AM,35.1,27.0,72,30.02,10.0,SSW,8.1,-,N/A,,Clear,200,2012-09-24 11:53:00
7:53 AM,37.0,27.0,67,30.00,10.0,Calm,Calm,-,N/A,,Partly Cloudy,0,2012-09-24 12:53:00
8:53 AM,48.0,28.0,46,29.97,10.0,SSW,9.2,-,N/A,,Clear,210,2012-09-24 13:53:00
9:53 AM,55.9,30.0,37,29.94,10.0,WSW,15.0,20.7,N/A,,Clear,240,2012-09-24 14:53:00
10:53 AM,61.0,30.9,32,29.92,10.0,WSW,13.8,-,N/A,,Clear,240,2012-09-24 15:53:00
11:53 AM,66.0,32.0,28,29.90,10.0,WSW,5.8,-,N/A,,Clear,250,2012-09-24 16:53:00
12:53 PM,71.1,28.9,21,29.86,10.0,WSW,16.1,20.7,N/A,,Clear,240,2012-09-24 17:53:00
1:53 PM,73.9,28.0,18,29.83,10.0,WSW,12.7,23.0,N/A,,Clear,240,2012-09-24 18:53:00
2:53 PM,75.9,28.9,18,29.81,10.0,WSW,15.0,-,N/A,,Clear,240,2012-09-24 19:53:00
3:53 PM,77.0,30.9,19,29.77,10.0,West,17.3,24.2,N/A,,Clear,270,2012-09-24 20:53:00
4:53 PM,78.1,30.9,18,29.75,10.0,West,15.0,25.3,N/A,,Clear,260,2012-09-24 21:53:00
5:53 PM,77.0,32.0,19,29.75,10.0,West,10.4,-,N/A,,Clear,260,2012-09-24 22:53:00
6:53 PM,70.0,34.0,27,29.75,10.0,WSW,5.8,-,N/A,,Clear,240,2012-09-24 23:53:00
7:53 PM,62.1,36.0,38,29.77,10.0,Calm,Calm,-,N/A,,Clear,0,2012-09-25 00:53:00
8:53 PM,60.1,37.0,42,29.78,10.0,Calm,Calm,-,N/A,,Clear,0,2012-09-25 01:53:00
9:53 PM,54.0,37.9,55,29.80,10.0,Calm,Calm,-,N/A,,Clear,0,2012-09-25 02:53:00
10:53 PM,54.0,37.9,55,29.82,10.0,NW,3.5,-,N/A,,Clear,310,2012-09-25 03:53:00
11:53 PM,55.9,39.9,55,29.83,10.0,NNE,5.8,-,N/A,,Clear,20,2012-09-25 04:53:00